createdAt,value
2017-06-30T00:00:18.694Z,17.08
2017-06-30T00:01:04.070Z,17.08
2017-06-30T00:02:04.112Z,17.07
2017-06-30T00:03:03.804Z,17.07
2017-06-30T00:04:04.147Z,16.96
2017-06-30T00:05:04.170Z,16.91
2017-06-30T00:06:04.183Z,16.89
2017-06-30T00:07:04.214Z,16.88
2017-06-30T00:08:04.224Z,16.86
2017-06-30T00:10:04.286Z,16.78
2017-06-30T00:13:04.353Z,16.83
2017-06-30T00:14:04.388Z,16.76
2017-06-30T00:15:04.402Z,16.79
2017-06-30T00:16:04.441Z,16.81
2017-06-30T00:17:04.441Z,16.66
2017-06-30T00:18:04.488Z,16.73
2017-06-30T00:19:04.501Z,16.67
2017-06-30T00:20:04.521Z,16.66
2017-06-30T00:21:04.529Z,16.79
2017-06-30T00:22:04.582Z,16.66
2017-06-30T00:23:04.587Z,16.78
2017-06-30T00:25:04.342Z,16.7
2017-06-30T00:26:04.671Z,16.82
2017-06-30T00:27:04.679Z,16.79
2017-06-30T00:28:04.726Z,16.78
2017-06-30T00:29:04.744Z,16.67
2017-06-30T00:30:04.766Z,16.67
2017-06-30T00:31:04.764Z,16.68
2017-06-30T00:32:19.409Z,16.68
2017-06-30T00:33:04.832Z,16.68
2017-06-30T00:34:04.889Z,16.68
2017-06-30T00:35:04.892Z,16.66
2017-06-30T00:36:04.914Z,16.63
2017-06-30T00:37:04.937Z,16.56
2017-06-30T00:38:04.934Z,16.57
2017-06-30T00:39:04.976Z,16.66
2017-06-30T00:40:04.994Z,16.68
2017-06-30T00:41:19.627Z,16.56
2017-06-30T00:42:05.048Z,16.57
2017-06-30T00:43:05.052Z,16.56
2017-06-30T00:44:19.696Z,16.66
2017-06-30T00:45:04.800Z,16.58
2017-06-30T00:46:05.149Z,16.57
2017-06-30T00:47:05.147Z,16.57
2017-06-30T00:48:19.798Z,16.58
2017-06-30T00:49:19.503Z,16.56
2017-06-30T00:50:04.933Z,16.49
2017-06-30T00:51:05.253Z,16.57
2017-06-30T00:52:05.284Z,16.56
2017-06-30T00:54:05.331Z,16.5
2017-06-30T00:55:05.349Z,16.52
2017-06-30T00:56:05.365Z,16.63
2017-06-30T00:57:05.401Z,16.58
2017-06-30T00:58:05.423Z,16.56
2017-06-30T00:59:20.051Z,16.6
2017-06-30T01:00:05.475Z,16.61
2017-06-30T01:01:05.503Z,16.53
2017-06-30T01:02:05.522Z,16.56
2017-06-30T01:03:05.587Z,16.46
2017-06-30T01:04:20.168Z,16.61
2017-06-30T01:05:20.188Z,16.5
2017-06-30T01:06:05.624Z,16.53
2017-06-30T01:07:05.332Z,16.45
2017-06-30T01:08:05.672Z,16.58
2017-06-30T01:09:05.670Z,16.48
2017-06-30T01:10:05.696Z,16.42
2017-06-30T01:11:05.731Z,16.46
2017-06-30T01:12:05.456Z,16.52
2017-06-30T01:13:05.798Z,16.48
2017-06-30T01:14:05.799Z,16.5
2017-06-30T01:15:05.833Z,16.53
2017-06-30T01:16:05.849Z,16.48
2017-06-30T01:17:05.858Z,16.53
2017-06-30T01:18:05.921Z,16.5
2017-06-30T01:19:05.914Z,16.56
2017-06-30T01:20:20.552Z,16.49
2017-06-30T01:21:05.982Z,16.52
2017-06-30T01:22:05.999Z,16.52
2017-06-30T01:23:05.716Z,16.56
2017-06-30T01:24:05.418Z,16.48
2017-06-30T01:27:05.804Z,16.5
2017-06-30T01:28:06.141Z,16.57
2017-06-30T01:29:20.767Z,16.53
2017-06-30T01:30:06.177Z,16.57
2017-06-30T01:31:05.907Z,16.52
2017-06-30T01:32:05.919Z,16.52
2017-06-30T01:33:05.958Z,16.56
2017-06-30T01:34:05.977Z,16.42
2017-06-30T01:35:20.910Z,16.57
2017-06-30T01:36:06.338Z,16.53
2017-06-30T01:37:05.730Z,16.56
2017-06-30T01:38:06.401Z,16.49
2017-06-30T01:39:20.994Z,16.53
2017-06-30T01:40:06.463Z,16.52
2017-06-30T01:41:06.466Z,16.58
2017-06-30T01:42:06.502Z,16.61
2017-06-30T01:43:06.506Z,16.64
2017-06-30T01:44:06.529Z,16.66
2017-06-30T01:45:06.557Z,16.68
2017-06-30T01:46:06.560Z,16.7
2017-06-30T01:47:06.629Z,16.67
2017-06-30T01:48:06.629Z,16.68
2017-06-30T01:49:06.635Z,16.66
2017-06-30T01:50:06.677Z,16.68
2017-06-30T01:51:06.683Z,16.64
2017-06-30T01:52:06.712Z,16.71
2017-06-30T01:53:06.416Z,16.68
2017-06-30T01:54:06.813Z,16.67
2017-06-30T01:55:06.776Z,16.64
2017-06-30T01:56:21.417Z,16.64
2017-06-30T01:58:06.846Z,16.64
2017-06-30T02:00:06.894Z,16.67
2017-06-30T02:01:06.940Z,16.64
2017-06-30T02:02:06.948Z,16.67
2017-06-30T02:03:06.981Z,16.64
2017-06-30T02:04:07.033Z,16.67
2017-06-30T02:05:07.028Z,16.64
2017-06-30T02:06:07.037Z,16.7
2017-06-30T02:07:21.671Z,16.6
2017-06-30T02:08:07.101Z,16.58
2017-06-30T02:09:07.106Z,16.6
2017-06-30T02:10:06.831Z,16.57
2017-06-30T02:11:06.860Z,16.6
2017-06-30T02:12:07.172Z,16.63
2017-06-30T02:13:21.849Z,16.57
2017-06-30T02:14:06.937Z,16.57
2017-06-30T02:15:07.265Z,16.64
2017-06-30T02:16:07.285Z,16.53
2017-06-30T02:17:21.911Z,16.52
2017-06-30T02:18:07.339Z,16.52
2017-06-30T02:19:07.358Z,16.49
2017-06-30T02:20:07.089Z,16.57
2017-06-30T02:21:07.391Z,16.53
2017-06-30T02:22:07.433Z,16.57
2017-06-30T02:23:22.043Z,16.53
2017-06-30T02:24:07.460Z,16.52
2017-06-30T02:25:07.515Z,16.49
2017-06-30T02:26:07.524Z,16.49
2017-06-30T02:27:07.562Z,16.48
2017-06-30T02:28:07.562Z,16.46
2017-06-30T02:29:07.605Z,16.49
2017-06-30T02:31:07.639Z,16.48
2017-06-30T02:32:07.702Z,16.53
2017-06-30T02:33:22.293Z,16.53
2017-06-30T02:34:07.722Z,16.46
2017-06-30T02:35:07.737Z,16.52
2017-06-30T02:36:07.769Z,16.48
2017-06-30T02:38:07.807Z,16.52
2017-06-30T02:39:22.426Z,16.5
2017-06-30T02:40:07.545Z,16.53
2017-06-30T02:41:07.862Z,16.52
2017-06-30T02:42:07.605Z,16.5
2017-06-30T02:43:07.922Z,16.45
2017-06-30T02:44:07.956Z,16.48
2017-06-30T02:45:07.970Z,16.49
2017-06-30T02:46:07.696Z,16.46
2017-06-30T02:47:08.012Z,16.5
2017-06-30T02:48:08.033Z,16.48
2017-06-30T02:49:08.076Z,16.5
2017-06-30T02:50:07.789Z,16.48
2017-06-30T02:51:08.130Z,16.52
2017-06-30T02:52:08.128Z,16.52
2017-06-30T02:53:08.168Z,16.49
2017-06-30T02:54:08.173Z,16.45
2017-06-30T02:55:22.820Z,16.48
2017-06-30T02:56:07.924Z,16.53
2017-06-30T02:57:07.961Z,16.56
2017-06-30T02:58:08.299Z,16.48
2017-06-30T02:59:08.307Z,16.57
2017-06-30T03:00:07.712Z,16.52
2017-06-30T03:01:08.339Z,16.52
2017-06-30T03:02:08.391Z,16.57
2017-06-30T03:04:08.429Z,16.56
2017-06-30T03:05:08.447Z,16.58
2017-06-30T03:06:08.474Z,16.53
2017-06-30T03:07:08.509Z,16.6
2017-06-30T03:08:08.527Z,16.53
2017-06-30T03:09:08.531Z,16.56
2017-06-30T03:10:23.179Z,16.57
2017-06-30T03:11:08.578Z,16.5
2017-06-30T03:12:08.618Z,16.56
2017-06-30T03:13:08.333Z,16.53
2017-06-30T03:14:08.672Z,16.56
2017-06-30T03:15:08.700Z,16.56
2017-06-30T03:16:08.712Z,16.67
2017-06-30T03:17:08.726Z,16.66
2017-06-30T03:18:08.771Z,16.66
2017-06-30T03:21:08.823Z,16.68
2017-06-30T03:22:08.858Z,16.64
2017-06-30T03:23:08.886Z,16.76
2017-06-30T03:24:08.916Z,16.75
2017-06-30T03:25:08.931Z,16.76
2017-06-30T03:26:08.951Z,16.73
2017-06-30T03:28:08.691Z,16.7
2017-06-30T03:29:23.616Z,16.81
2017-06-30T03:30:09.049Z,16.82
2017-06-30T03:32:09.089Z,16.83
2017-06-30T03:33:23.722Z,16.82
2017-06-30T03:34:09.130Z,16.85
2017-06-30T03:35:09.176Z,16.85
2017-06-30T03:36:23.794Z,16.88
2017-06-30T03:37:09.204Z,16.82
2017-06-30T03:38:09.243Z,16.81
2017-06-30T03:39:09.246Z,16.83
2017-06-30T03:40:09.301Z,16.86
2017-06-30T03:41:09.307Z,16.82
2017-06-30T03:42:23.624Z,16.79
2017-06-30T03:43:09.357Z,16.88
2017-06-30T03:44:09.373Z,16.86
2017-06-30T03:45:09.399Z,16.83
2017-06-30T03:46:09.439Z,16.83
2017-06-30T03:47:24.058Z,16.82
2017-06-30T03:49:09.194Z,16.85
2017-06-30T03:50:09.528Z,16.82
2017-06-30T03:52:09.573Z,16.85
2017-06-30T03:53:09.274Z,16.86
2017-06-30T03:54:09.621Z,16.85
2017-06-30T03:55:09.644Z,16.83
2017-06-30T03:56:09.674Z,16.88
2017-06-30T03:57:09.389Z,16.83
2017-06-30T03:58:24.315Z,16.85
2017-06-30T03:59:09.733Z,16.86
2017-06-30T04:00:09.830Z,16.78
2017-06-30T04:01:09.785Z,16.86
2017-06-30T04:02:24.416Z,16.88
2017-06-30T04:03:09.829Z,16.83
2017-06-30T04:04:24.448Z,16.88
2017-06-30T04:05:09.878Z,16.86
2017-06-30T04:06:09.903Z,16.83
2017-06-30T04:07:09.942Z,16.81
2017-06-30T04:08:09.945Z,16.82
2017-06-30T04:09:09.977Z,16.85
2017-06-30T04:10:10.005Z,16.71
2017-06-30T04:11:10.039Z,16.82
2017-06-30T04:12:10.037Z,16.81
2017-06-30T04:13:09.774Z,16.85
2017-06-30T04:14:24.696Z,16.82
2017-06-30T04:15:10.113Z,16.85
2017-06-30T04:16:09.839Z,16.78
2017-06-30T04:17:10.161Z,16.75
2017-06-30T04:18:10.196Z,16.79
2017-06-30T04:19:09.904Z,16.75
2017-06-30T04:20:09.935Z,16.83
2017-06-30T04:21:10.266Z,16.85
2017-06-30T04:22:10.302Z,16.73
2017-06-30T04:23:10.307Z,16.66
2017-06-30T04:24:24.936Z,16.83
2017-06-30T04:25:10.059Z,16.71
2017-06-30T04:26:10.081Z,16.67
2017-06-30T04:27:10.407Z,16.75
2017-06-30T04:28:10.451Z,16.76
2017-06-30T04:29:10.455Z,16.78
2017-06-30T04:30:25.081Z,16.78
2017-06-30T04:31:10.511Z,16.81
2017-06-30T04:32:10.529Z,16.76
2017-06-30T04:33:10.540Z,16.67
2017-06-30T04:34:10.573Z,16.68
2017-06-30T04:35:10.599Z,16.7
2017-06-30T04:36:10.626Z,16.66
2017-06-30T04:37:10.652Z,16.67
2017-06-30T04:38:10.667Z,16.68
2017-06-30T04:39:10.706Z,16.67
2017-06-30T04:40:10.706Z,16.68
2017-06-30T04:41:10.747Z,16.67
2017-06-30T04:42:10.768Z,16.67
2017-06-30T04:43:10.790Z,16.67
2017-06-30T04:44:10.823Z,16.63
2017-06-30T04:45:25.431Z,16.71
2017-06-30T04:46:10.867Z,16.66
2017-06-30T04:47:10.880Z,16.7
2017-06-30T04:48:10.896Z,16.64
2017-06-30T04:49:25.543Z,16.63
2017-06-30T04:50:10.961Z,16.64
2017-06-30T04:51:10.983Z,16.67
2017-06-30T04:52:10.998Z,16.61
2017-06-30T04:53:11.038Z,16.66
2017-06-30T04:54:11.051Z,16.67
2017-06-30T04:55:25.681Z,16.61
2017-06-30T04:56:11.111Z,16.7
2017-06-30T04:57:11.121Z,16.63
2017-06-30T04:58:11.139Z,16.67
2017-06-30T04:59:10.871Z,16.64
2017-06-30T05:00:11.256Z,16.56
2017-06-30T05:01:11.234Z,16.58
2017-06-30T05:02:11.242Z,16.56
2017-06-30T05:03:11.279Z,16.56
2017-06-30T05:04:11.287Z,16.56
2017-06-30T05:05:25.911Z,16.53
2017-06-30T05:06:11.342Z,16.56
2017-06-30T05:08:11.396Z,16.53
2017-06-30T05:09:11.413Z,16.53
2017-06-30T05:10:26.044Z,16.56
2017-06-30T05:11:11.460Z,16.46
2017-06-30T05:12:11.481Z,16.56
2017-06-30T05:13:11.507Z,16.5
2017-06-30T05:14:11.544Z,16.49
2017-06-30T05:15:11.567Z,16.58
2017-06-30T05:17:26.212Z,16.58
2017-06-30T05:18:11.613Z,16.5
2017-06-30T05:19:11.662Z,16.43
2017-06-30T05:20:11.658Z,16.49
2017-06-30T05:21:26.310Z,16.52
2017-06-30T05:22:11.762Z,16.56
2017-06-30T05:23:26.355Z,16.49
2017-06-30T05:24:11.764Z,16.57
2017-06-30T05:25:11.804Z,16.52
2017-06-30T05:26:11.825Z,16.48
2017-06-30T05:27:11.844Z,16.41
2017-06-30T05:28:26.470Z,16.5
2017-06-30T05:29:11.883Z,16.53
2017-06-30T05:30:11.977Z,16.49
2017-06-30T05:31:11.934Z,16.49
2017-06-30T05:32:11.970Z,16.48
2017-06-30T05:33:26.593Z,16.53
2017-06-30T05:34:12.022Z,16.43
2017-06-30T05:35:12.035Z,16.49
2017-06-30T05:36:12.064Z,16.46
2017-06-30T05:37:12.087Z,16.6
2017-06-30T05:38:11.788Z,16.46
2017-06-30T05:39:12.143Z,16.49
2017-06-30T05:40:26.761Z,16.56
2017-06-30T05:41:12.173Z,16.5
2017-06-30T05:42:12.209Z,16.48
2017-06-30T05:43:12.214Z,16.49
2017-06-30T05:44:12.251Z,16.49
2017-06-30T05:45:11.949Z,16.49
2017-06-30T05:46:12.308Z,16.48
2017-06-30T05:49:26.967Z,16.48
2017-06-30T05:50:12.402Z,16.48
2017-06-30T05:51:12.416Z,16.52
2017-06-30T05:52:12.446Z,16.49
2017-06-30T05:53:26.751Z,16.46
2017-06-30T05:54:12.476Z,16.42
2017-06-30T05:55:12.519Z,16.5
2017-06-30T05:56:12.539Z,16.48
2017-06-30T05:57:27.165Z,16.46
2017-06-30T05:59:12.597Z,16.56
2017-06-30T06:00:12.731Z,16.53
2017-06-30T06:01:12.660Z,16.52
2017-06-30T06:02:12.698Z,16.49
2017-06-30T06:04:12.731Z,16.53
2017-06-30T06:05:27.352Z,16.52
2017-06-30T06:06:12.779Z,16.57
2017-06-30T06:07:12.790Z,16.53
2017-06-30T06:08:12.813Z,16.56
2017-06-30T06:10:12.864Z,16.63
2017-06-30T06:11:12.894Z,16.53
2017-06-30T06:12:12.929Z,16.58
2017-06-30T06:13:12.949Z,16.63
2017-06-30T06:14:12.970Z,16.63
2017-06-30T06:15:13.039Z,16.64
2017-06-30T06:16:13.019Z,16.7
2017-06-30T06:17:13.033Z,16.63
2017-06-30T06:18:13.057Z,16.64
2017-06-30T06:19:13.102Z,16.71
2017-06-30T06:20:27.705Z,16.78
2017-06-30T06:21:13.148Z,16.67
2017-06-30T06:22:13.174Z,16.67
2017-06-30T06:23:27.775Z,16.76
2017-06-30T06:24:13.212Z,16.78
2017-06-30T06:25:13.216Z,16.81
2017-06-30T06:26:13.263Z,16.75
2017-06-30T06:27:13.276Z,16.75
2017-06-30T06:29:13.327Z,16.66
2017-06-30T06:30:13.365Z,16.64
2017-06-30T06:31:13.666Z,16.79
2017-06-30T06:32:27.999Z,16.75
2017-06-30T06:33:13.425Z,16.78
2017-06-30T06:34:13.444Z,16.79
2017-06-30T06:35:13.584Z,16.76
2017-06-30T06:36:13.481Z,16.75
2017-06-30T06:37:13.526Z,16.71
2017-06-30T06:38:13.537Z,16.81
2017-06-30T06:39:13.579Z,16.78
2017-06-30T06:40:13.577Z,16.78
2017-06-30T06:41:13.628Z,16.75
2017-06-30T06:42:13.389Z,16.66
2017-06-30T06:43:13.346Z,16.7
2017-06-30T06:44:13.415Z,16.7
2017-06-30T06:45:13.725Z,16.73
2017-06-30T06:46:13.416Z,16.82
2017-06-30T06:47:13.458Z,16.86
2017-06-30T06:48:13.481Z,16.83
2017-06-30T06:49:13.498Z,16.86
2017-06-30T06:50:13.524Z,16.91
2017-06-30T06:51:28.452Z,16.73
2017-06-30T06:52:28.481Z,16.78
2017-06-30T06:53:13.902Z,16.75
2017-06-30T06:54:13.991Z,16.73
2017-06-30T06:55:13.947Z,16.63
2017-06-30T06:56:13.966Z,16.78
2017-06-30T06:57:14.005Z,16.78
2017-06-30T06:58:14.037Z,16.88
2017-06-30T06:59:14.038Z,16.82
2017-06-30T07:00:14.083Z,16.86
2017-06-30T07:01:14.085Z,16.88
2017-06-30T07:02:14.122Z,16.93
2017-06-30T07:03:14.148Z,16.94
2017-06-30T07:04:14.179Z,16.86
2017-06-30T07:05:14.191Z,16.83
2017-06-30T07:06:14.204Z,16.83
2017-06-30T07:07:14.246Z,16.83
2017-06-30T07:08:28.858Z,16.79
2017-06-30T07:10:14.325Z,16.86
2017-06-30T07:11:28.932Z,16.86
2017-06-30T07:12:14.368Z,16.86
2017-06-30T07:13:14.383Z,16.86
2017-06-30T07:14:14.495Z,16.83
2017-06-30T07:15:14.451Z,16.91
2017-06-30T07:16:14.453Z,16.88
2017-06-30T07:17:14.225Z,16.81
2017-06-30T07:18:14.497Z,16.78
2017-06-30T07:19:14.539Z,16.81
2017-06-30T07:20:14.605Z,16.81
2017-06-30T07:21:14.589Z,16.85
2017-06-30T07:22:14.603Z,16.86
2017-06-30T07:23:14.622Z,16.85
2017-06-30T07:24:29.263Z,16.83
2017-06-30T07:25:14.680Z,16.82
2017-06-30T07:26:14.710Z,16.83
2017-06-30T07:27:14.512Z,16.82
2017-06-30T07:28:14.753Z,16.79
2017-06-30T07:29:14.766Z,16.88
2017-06-30T07:31:14.831Z,16.89
2017-06-30T07:32:14.855Z,16.91
2017-06-30T07:33:14.925Z,16.98
2017-06-30T07:34:29.494Z,16.78
2017-06-30T07:35:14.931Z,16.83
2017-06-30T07:36:14.630Z,16.82
2017-06-30T07:37:29.565Z,16.81
2017-06-30T07:38:15.000Z,16.98
2017-06-30T07:40:29.649Z,16.93
2017-06-30T07:41:15.051Z,16.94
2017-06-30T07:42:15.098Z,17.01
2017-06-30T07:43:15.122Z,17.03
2017-06-30T07:44:15.146Z,16.94
2017-06-30T07:45:15.198Z,16.96
2017-06-30T07:46:15.188Z,17.06
2017-06-30T07:47:15.189Z,16.94
2017-06-30T07:48:14.990Z,16.93
2017-06-30T07:49:15.262Z,17.07
2017-06-30T07:51:15.314Z,17.03
2017-06-30T07:52:15.337Z,17.07
2017-06-30T07:53:15.338Z,16.98
2017-06-30T07:54:15.382Z,17.07
2017-06-30T07:55:30.023Z,17
2017-06-30T07:56:15.420Z,16.89
2017-06-30T07:57:15.464Z,16.98
2017-06-30T07:58:15.470Z,17.06
2017-06-30T07:59:15.511Z,17.03
2017-06-30T08:00:15.515Z,16.82
2017-06-30T08:01:15.554Z,16.91
2017-06-30T08:02:15.579Z,16.94
2017-06-30T08:03:15.607Z,16.97
2017-06-30T08:04:15.622Z,17.01
2017-06-30T08:05:30.297Z,17.01
2017-06-30T08:06:15.676Z,17.06
2017-06-30T08:08:15.722Z,17.06
2017-06-30T08:09:15.753Z,17.14
2017-06-30T08:10:15.494Z,17.12
2017-06-30T08:11:15.475Z,17.16
2017-06-30T08:12:15.826Z,17.19
2017-06-30T08:13:15.534Z,17.19
2017-06-30T08:14:15.873Z,17.25
2017-06-30T08:15:15.883Z,17.25
2017-06-30T08:16:30.522Z,17.23
2017-06-30T08:17:15.941Z,17.28
2017-06-30T08:18:15.974Z,17.37
2017-06-30T08:20:16.069Z,17.38
2017-06-30T08:21:15.743Z,17.4
2017-06-30T08:22:16.043Z,17.4
2017-06-30T08:23:16.089Z,17.38
2017-06-30T08:25:16.133Z,17.28
2017-06-30T08:26:16.158Z,17.3
2017-06-30T08:27:30.792Z,17.25
2017-06-30T08:28:16.217Z,17.31
2017-06-30T08:29:16.222Z,17.31
2017-06-30T08:30:16.259Z,17.44
2017-06-30T08:31:30.917Z,17.55
2017-06-30T08:32:16.305Z,17.63
2017-06-30T08:34:16.359Z,17.71
2017-06-30T08:35:16.371Z,17.75
2017-06-30T08:36:31.006Z,17.7
2017-06-30T08:37:16.416Z,17.75
2017-06-30T08:38:30.748Z,17.81
2017-06-30T08:39:16.530Z,17.79
2017-06-30T08:40:16.501Z,17.78
2017-06-30T08:41:16.515Z,17.74
2017-06-30T08:42:16.534Z,17.66
2017-06-30T08:43:31.182Z,17.68
2017-06-30T08:44:16.890Z,17.64
2017-06-30T08:45:16.635Z,17.7
2017-06-30T08:46:31.252Z,17.74
2017-06-30T08:47:16.681Z,17.7
2017-06-30T08:48:16.695Z,17.66
2017-06-30T08:49:16.728Z,17.66
2017-06-30T08:50:16.767Z,17.68
2017-06-30T08:51:16.776Z,17.66
2017-06-30T08:52:16.476Z,17.64
2017-06-30T08:53:16.522Z,17.72
2017-06-30T08:54:16.579Z,17.79
2017-06-30T08:55:16.568Z,17.82
2017-06-30T08:56:16.586Z,17.84
2017-06-30T08:57:16.915Z,17.86
2017-06-30T08:58:16.617Z,17.9
2017-06-30T08:59:31.766Z,17.95
2017-06-30T09:00:17.050Z,17.79
2017-06-30T09:01:17.013Z,17.72
2017-06-30T09:02:17.040Z,17.78
2017-06-30T09:03:17.374Z,17.87
2017-06-30T09:04:17.175Z,18
2017-06-30T09:05:17.132Z,18.07
2017-06-30T09:06:16.838Z,18.08
2017-06-30T09:07:16.857Z,18.12
2017-06-30T09:08:17.186Z,18.12
2017-06-30T09:10:31.837Z,18.26
2017-06-30T09:11:17.251Z,18.35
2017-06-30T09:12:17.296Z,18.39
2017-06-30T09:13:17.312Z,18.37
2017-06-30T09:14:17.381Z,18.41
2017-06-30T09:16:17.061Z,18.45
2017-06-30T09:17:17.409Z,18.52
2017-06-30T09:18:17.429Z,18.48
2017-06-30T09:19:17.163Z,18.57
2017-06-30T09:20:17.588Z,18.41
2017-06-30T09:21:17.518Z,18.44
2017-06-30T09:22:17.526Z,18.5
2017-06-30T09:23:17.564Z,18.44
2017-06-30T09:24:17.597Z,18.39
2017-06-30T09:25:17.297Z,18.42
2017-06-30T09:26:17.641Z,18.36
2017-06-30T09:27:17.651Z,18.39
2017-06-30T09:28:17.740Z,18.45
2017-06-30T09:29:17.717Z,18.39
2017-06-30T09:30:32.323Z,18.36
2017-06-30T09:32:17.770Z,18.37
2017-06-30T09:33:17.801Z,18.45
2017-06-30T09:34:17.839Z,18.5
2017-06-30T09:35:17.555Z,18.41
2017-06-30T09:36:17.888Z,18.41
2017-06-30T09:37:17.893Z,18.41
2017-06-30T09:38:17.945Z,18.25
2017-06-30T09:39:18.053Z,18.23
2017-06-30T09:40:17.989Z,18.25
2017-06-30T09:41:17.998Z,18.18
2017-06-30T09:43:18.112Z,18.33
2017-06-30T09:44:18.079Z,18.33
2017-06-30T09:45:18.101Z,18.32
2017-06-30T09:46:18.125Z,18.42
2017-06-30T09:47:18.164Z,18.39
2017-06-30T09:49:18.220Z,18.52
2017-06-30T09:50:18.287Z,18.51
2017-06-30T09:51:18.267Z,18.52
2017-06-30T09:52:18.266Z,18.57
2017-06-30T09:53:18.406Z,18.6
2017-06-30T09:54:18.340Z,18.66
2017-06-30T09:55:18.355Z,18.69
2017-06-30T09:56:18.368Z,18.85
2017-06-30T09:57:18.410Z,18.78
2017-06-30T09:58:18.426Z,18.88
2017-06-30T09:59:18.470Z,18.91
2017-06-30T10:00:18.522Z,18.92
2017-06-30T10:01:18.514Z,18.92
2017-06-30T10:02:33.121Z,18.88
2017-06-30T10:03:18.558Z,18.9
2017-06-30T10:04:33.189Z,18.8
2017-06-30T10:05:18.610Z,18.7
2017-06-30T10:06:18.325Z,18.9
2017-06-30T10:07:18.645Z,18.91
2017-06-30T10:08:18.741Z,18.94
2017-06-30T10:09:18.443Z,18.87
2017-06-30T10:11:33.408Z,19.04
2017-06-30T10:12:18.777Z,19.04
2017-06-30T10:13:18.810Z,19.06
2017-06-30T10:14:18.830Z,19.06
2017-06-30T10:15:18.861Z,18.98
2017-06-30T10:16:18.887Z,18.76
2017-06-30T10:17:18.916Z,18.76
2017-06-30T10:18:33.531Z,18.73
2017-06-30T10:19:18.949Z,18.84
2017-06-30T10:20:18.979Z,19.04
2017-06-30T10:21:18.990Z,19.02
2017-06-30T10:22:33.641Z,19.18
2017-06-30T10:23:33.755Z,19.25
2017-06-30T10:24:19.094Z,19.31
2017-06-30T10:26:19.136Z,19.41
2017-06-30T10:27:33.756Z,19.41
2017-06-30T10:28:19.189Z,19.51
2017-06-30T10:29:19.292Z,19.58
2017-06-30T10:30:19.286Z,19.58
2017-06-30T10:31:18.947Z,19.55
2017-06-30T10:32:19.289Z,19.62
2017-06-30T10:33:19.308Z,19.56
2017-06-30T10:34:33.623Z,19.59
2017-06-30T10:35:19.368Z,19.58
2017-06-30T10:36:19.384Z,19.55
2017-06-30T10:37:19.402Z,19.54
2017-06-30T10:38:19.450Z,19.56
2017-06-30T10:39:19.509Z,19.47
2017-06-30T10:40:19.492Z,19.56
2017-06-30T10:41:19.505Z,19.73
2017-06-30T10:42:19.233Z,19.86
2017-06-30T10:43:19.552Z,19.91
2017-06-30T10:44:19.588Z,19.92
2017-06-30T10:45:19.615Z,19.84
2017-06-30T10:46:19.631Z,19.73
2017-06-30T10:47:19.670Z,19.78
2017-06-30T10:48:19.669Z,19.74
2017-06-30T10:49:19.726Z,19.92
2017-06-30T10:50:34.329Z,20.01
2017-06-30T10:51:19.816Z,20.1
2017-06-30T10:52:19.802Z,20.2
2017-06-30T10:53:19.807Z,20.31
2017-06-30T10:54:19.832Z,20.18
2017-06-30T10:55:19.872Z,20.13
2017-06-30T10:56:19.886Z,20.21
2017-06-30T10:57:19.919Z,20.18
2017-06-30T10:58:19.930Z,20.05
2017-06-30T11:00:19.981Z,20.01
2017-06-30T11:01:20.017Z,19.96
2017-06-30T11:02:34.645Z,20.02
2017-06-30T11:03:20.081Z,20.1
2017-06-30T11:04:20.098Z,20.1
2017-06-30T11:05:34.717Z,20.24
2017-06-30T11:06:20.148Z,20.21
2017-06-30T11:07:20.164Z,20.23
2017-06-30T11:08:20.260Z,20.16
2017-06-30T11:09:20.214Z,20.06
2017-06-30T11:10:20.267Z,20.1
2017-06-30T11:11:20.423Z,20.13
2017-06-30T11:12:20.305Z,20.16
2017-06-30T11:13:20.315Z,20.28
2017-06-30T11:14:20.347Z,20.24
2017-06-30T11:15:20.062Z,20.18
2017-06-30T11:16:20.410Z,20.21
2017-06-30T11:17:20.419Z,20.36
2017-06-30T11:18:20.468Z,20.47
2017-06-30T11:19:20.475Z,20.48
2017-06-30T11:20:20.509Z,20.5
2017-06-30T11:21:20.528Z,20.48
2017-06-30T11:22:20.561Z,20.41
2017-06-30T11:23:20.266Z,20.2
2017-06-30T11:24:20.299Z,20.16
2017-06-30T11:25:20.625Z,19.99
2017-06-30T11:26:20.350Z,20.06
2017-06-30T11:27:20.690Z,20.16
2017-06-30T11:28:20.713Z,20.13
2017-06-30T11:29:20.725Z,20.24
2017-06-30T11:30:20.745Z,20.21
2017-06-30T11:31:20.781Z,20.41
2017-06-30T11:32:20.815Z,20.48
2017-06-30T11:33:20.904Z,20.48
2017-06-30T11:34:20.907Z,20.62
2017-06-30T11:35:20.884Z,20.7
2017-06-30T11:36:20.953Z,20.72
2017-06-30T11:38:20.957Z,20.85
2017-06-30T11:40:35.627Z,20.95
2017-06-30T11:41:35.932Z,20.98
2017-06-30T11:42:21.082Z,20.98
2017-06-30T11:43:21.092Z,20.91
2017-06-30T11:44:21.134Z,20.92
2017-06-30T11:45:21.188Z,20.88
2017-06-30T11:46:21.163Z,20.67
2017-06-30T11:48:21.281Z,20.66
2017-06-30T11:49:21.233Z,20.62
2017-06-30T11:50:21.275Z,20.66
2017-06-30T11:52:21.320Z,20.72
2017-06-30T11:53:35.951Z,20.64
2017-06-30T11:54:21.365Z,20.7
2017-06-30T11:55:35.995Z,20.67
2017-06-30T11:56:21.122Z,20.7
2017-06-30T11:57:21.458Z,20.79
2017-06-30T11:58:21.777Z,20.67
2017-06-30T11:59:21.494Z,20.8
2017-06-30T12:00:21.226Z,20.88
2017-06-30T12:01:21.558Z,20.95
2017-06-30T12:03:21.655Z,20.91
2017-06-30T12:04:21.630Z,20.99
2017-06-30T12:05:21.763Z,21.03
2017-06-30T12:06:21.672Z,21.24
2017-06-30T12:07:21.717Z,21.31
2017-06-30T12:08:21.729Z,21.38
2017-06-30T12:09:36.411Z,21.47
2017-06-30T12:10:21.782Z,21.38
2017-06-30T12:11:21.849Z,21.53
2017-06-30T12:12:21.529Z,21.49
2017-06-30T12:13:21.861Z,21.49
2017-06-30T12:14:21.893Z,21.46
2017-06-30T12:15:21.713Z,21.4
2017-06-30T12:16:21.940Z,21.38
2017-06-30T12:17:21.665Z,21.56
2017-06-30T12:18:21.678Z,21.58
2017-06-30T12:19:36.622Z,21.59
2017-06-30T12:20:21.732Z,21.67
2017-06-30T12:21:22.084Z,21.59
2017-06-30T12:22:21.788Z,21.58
2017-06-30T12:23:22.119Z,21.59
2017-06-30T12:24:22.146Z,21.49
2017-06-30T12:25:36.867Z,21.58
2017-06-30T12:26:22.208Z,21.8
2017-06-30T12:27:22.227Z,21.8
2017-06-30T12:28:22.000Z,21.94
2017-06-30T12:29:22.283Z,21.92
2017-06-30T12:30:22.304Z,22.03
2017-06-30T12:31:22.323Z,21.99
2017-06-30T12:32:22.447Z,21.88
2017-06-30T12:33:22.391Z,22.07
2017-06-30T12:34:22.402Z,22.2
2017-06-30T12:35:22.445Z,22.07
2017-06-30T12:36:22.463Z,22.3
2017-06-30T12:37:22.491Z,22.25
2017-06-30T12:38:22.509Z,22.21
2017-06-30T12:39:22.536Z,22.22
2017-06-30T12:40:37.172Z,22.25
2017-06-30T12:41:22.589Z,22.25
2017-06-30T12:42:22.355Z,22.35
2017-06-30T12:43:22.649Z,22.46
2017-06-30T12:44:22.366Z,22.49
2017-06-30T12:45:22.708Z,22.47
2017-06-30T12:46:22.724Z,22.24
2017-06-30T12:47:22.755Z,22.27
2017-06-30T12:48:22.830Z,22.37
2017-06-30T12:50:22.827Z,22.24
2017-06-30T12:51:22.912Z,22.17
2017-06-30T12:52:22.892Z,22.14
2017-06-30T12:53:22.919Z,22.15
2017-06-30T12:54:22.932Z,22.07
2017-06-30T12:55:23.000Z,22.1
2017-06-30T12:56:23.009Z,22.18
2017-06-30T12:57:23.024Z,22.1
2017-06-30T12:58:23.051Z,22.09
2017-06-30T12:59:23.059Z,22.07
2017-06-30T13:00:23.100Z,22.14
2017-06-30T13:01:23.120Z,22.22
2017-06-30T13:02:23.158Z,22.31
2017-06-30T13:03:23.171Z,22.61
2017-06-30T13:04:23.218Z,22.73
2017-06-30T13:05:23.285Z,22.79
2017-06-30T13:06:23.257Z,22.9
2017-06-30T13:07:23.291Z,22.98
2017-06-30T13:08:23.115Z,23
2017-06-30T13:09:37.935Z,22.85
2017-06-30T13:10:23.379Z,22.72
2017-06-30T13:11:23.377Z,22.67
2017-06-30T13:12:38.062Z,22.58
2017-06-30T13:13:23.444Z,22.52
2017-06-30T13:14:38.078Z,22.51
2017-06-30T13:15:23.603Z,22.46
2017-06-30T13:16:23.202Z,22.54
2017-06-30T13:17:23.250Z,22.52
2017-06-30T13:18:23.634Z,22.72
2017-06-30T13:19:23.655Z,22.77
2017-06-30T13:21:23.662Z,23.02
2017-06-30T13:22:23.835Z,23.09
2017-06-30T13:23:23.704Z,23.16
2017-06-30T13:24:23.726Z,23.17
2017-06-30T13:25:23.816Z,23.35
2017-06-30T13:26:23.794Z,23.4
2017-06-30T13:27:23.502Z,23.47
2017-06-30T13:28:38.448Z,23.46
2017-06-30T13:29:23.868Z,23.46
2017-06-30T13:30:38.491Z,23.58
2017-06-30T13:31:23.926Z,23.61
2017-06-30T13:32:23.959Z,23.6
2017-06-30T13:33:23.970Z,23.6
2017-06-30T13:34:24.005Z,23.36
2017-06-30T13:35:23.462Z,23.27
2017-06-30T13:36:24.068Z,22.98
2017-06-30T13:37:24.075Z,22.98
2017-06-30T13:38:24.125Z,22.98
2017-06-30T13:39:24.202Z,22.73
2017-06-30T13:40:24.166Z,22.7
2017-06-30T13:41:24.181Z,22.65
2017-06-30T13:42:23.895Z,22.61
2017-06-30T13:43:24.038Z,22.49
2017-06-30T13:44:38.865Z,22.24